createdAt,value
2022-10-15T00:00:24.795Z,13.60
2022-10-15T00:02:52.633Z,13.60
2022-10-15T00:05:20.752Z,13.60
2022-10-15T00:07:48.579Z,13.60
2022-10-15T00:10:16.744Z,13.60
2022-10-15T00:12:44.650Z,13.60
2022-10-15T00:15:13.159Z,13.60
2022-10-15T00:17:42.519Z,13.60
2022-10-15T00:20:12.883Z,13.60
2022-10-15T00:22:40.760Z,13.60
2022-10-15T00:25:09.613Z,13.60
2022-10-15T00:27:38.176Z,13.50
2022-10-15T00:30:07.347Z,13.50
2022-10-15T00:32:35.207Z,13.60
2022-10-15T00:35:04.660Z,13.50
2022-10-15T00:37:32.362Z,13.50
2022-10-15T00:40:00.146Z,13.50
2022-10-15T00:42:28.026Z,13.50
2022-10-15T00:44:57.989Z,13.50
2022-10-15T00:47:30.233Z,13.50
2022-10-15T00:50:06.658Z,13.50
2022-10-15T00:52:41.965Z,13.50
2022-10-15T00:55:13.807Z,13.50
2022-10-15T00:57:43.942Z,13.50
2022-10-15T01:00:16.085Z,13.50
2022-10-15T01:02:44.750Z,13.50
2022-10-15T01:05:16.018Z,13.40
2022-10-15T01:07:43.853Z,13.50
2022-10-15T01:10:12.551Z,13.40
2022-10-15T01:12:55.525Z,13.40
2022-10-15T01:15:27.415Z,13.40
2022-10-15T01:17:59.914Z,13.40
2022-10-15T01:20:49.711Z,13.40
2022-10-15T01:24:02.699Z,13.40
2022-10-15T01:27:00.109Z,13.40
2022-10-15T01:29:49.747Z,13.40
2022-10-15T01:32:24.531Z,13.40
2022-10-15T01:34:57.430Z,13.50
2022-10-15T01:37:33.129Z,13.50
2022-10-15T01:40:07.979Z,13.40
2022-10-15T01:42:42.703Z,13.40
2022-10-15T01:45:15.547Z,13.40
2022-10-15T01:47:49.406Z,13.40
2022-10-15T01:50:19.039Z,13.40
2022-10-15T01:52:47.161Z,13.40
2022-10-15T01:55:17.888Z,13.40
2022-10-15T01:57:47.105Z,13.40
2022-10-15T02:00:15.134Z,13.40
2022-10-15T02:02:44.193Z,13.40
2022-10-15T02:05:16.664Z,13.40
2022-10-15T02:07:52.186Z,13.40
2022-10-15T02:10:25.002Z,13.40
2022-10-15T02:13:06.358Z,13.40
2022-10-15T02:15:39.458Z,13.40
2022-10-15T02:18:13.554Z,13.40
2022-10-15T02:20:49.651Z,13.40
2022-10-15T02:23:21.372Z,13.40
2022-10-15T02:25:52.365Z,13.40
2022-10-15T02:28:20.400Z,13.40
2022-10-15T02:30:52.625Z,13.40
2022-10-15T02:33:22.882Z,13.40
2022-10-15T02:35:52.401Z,13.40
2022-10-15T02:38:23.913Z,13.30
2022-10-15T02:40:52.746Z,13.30
2022-10-15T02:43:21.912Z,13.30
2022-10-15T02:45:50.203Z,13.30
2022-10-15T02:48:17.948Z,13.30
2022-10-15T02:50:47.028Z,13.30
2022-10-15T02:53:14.751Z,13.30
2022-10-15T02:55:42.502Z,13.30
2022-10-15T02:58:10.201Z,13.30
2022-10-15T03:00:37.978Z,13.30
2022-10-15T03:03:05.710Z,13.30
2022-10-15T03:05:35.181Z,13.30
2022-10-15T03:08:04.230Z,13.30
2022-10-15T03:10:31.929Z,13.30
2022-10-15T03:13:03.630Z,13.30
2022-10-15T03:15:31.392Z,13.30
2022-10-15T03:17:59.118Z,13.30
2022-10-15T03:20:26.829Z,13.30
2022-10-15T03:22:54.902Z,13.30
2022-10-15T03:25:23.935Z,13.30
2022-10-15T03:27:52.794Z,13.20
2022-10-15T03:30:20.851Z,13.20
2022-10-15T03:32:48.750Z,13.20
2022-10-15T03:35:16.610Z,13.20
2022-10-15T03:37:44.301Z,13.20
2022-10-15T03:40:14.508Z,13.20
2022-10-15T03:42:43.779Z,13.30
2022-10-15T03:45:12.028Z,13.20
2022-10-15T03:47:39.731Z,13.20
2022-10-15T03:50:07.722Z,13.30
2022-10-15T03:52:35.404Z,13.20
2022-10-15T03:55:03.107Z,13.20
2022-10-15T03:57:30.840Z,13.20
2022-10-15T03:59:59.886Z,13.20
2022-10-15T04:02:27.585Z,13.20
2022-10-15T04:04:55.708Z,13.20
2022-10-15T04:07:23.624Z,13.30
2022-10-15T04:09:51.368Z,13.20
2022-10-15T04:12:19.280Z,13.20
2022-10-15T04:14:46.991Z,13.20
2022-10-15T04:17:17.651Z,13.20
2022-10-15T04:19:45.581Z,13.20
2022-10-15T04:22:13.256Z,13.20
2022-10-15T04:24:40.956Z,13.20
2022-10-15T04:27:08.740Z,13.20
2022-10-15T04:29:36.490Z,13.20
2022-10-15T04:32:04.392Z,13.30
2022-10-15T04:34:33.429Z,13.30
2022-10-15T04:37:01.128Z,13.20
2022-10-15T04:39:28.808Z,13.20
2022-10-15T04:41:56.490Z,13.20
2022-10-15T04:44:24.229Z,13.20
2022-10-15T04:46:51.933Z,13.20
2022-10-15T04:49:19.708Z,13.20
2022-10-15T04:51:49.314Z,13.20
2022-10-15T04:54:17.190Z,13.20
2022-10-15T04:56:44.920Z,13.20
2022-10-15T04:59:12.791Z,13.20
2022-10-15T05:01:40.468Z,13.20
2022-10-15T05:04:09.433Z,13.20
2022-10-15T05:06:37.136Z,13.10
2022-10-15T05:09:06.203Z,13.20
2022-10-15T05:11:37.987Z,13.20
2022-10-15T05:14:06.836Z,13.10
2022-10-15T05:16:34.943Z,13.20
2022-10-15T05:19:04.102Z,13.10
2022-10-15T05:21:32.780Z,13.10
2022-10-15T05:24:00.604Z,13.10
2022-10-15T05:26:30.703Z,13.10
2022-10-15T05:29:00.627Z,13.10
2022-10-15T05:31:30.429Z,13.10
2022-10-15T05:33:58.310Z,13.10
2022-10-15T05:36:27.870Z,13.10
2022-10-15T05:38:57.577Z,13.10
2022-10-15T05:41:26.099Z,13.10
2022-10-15T05:43:56.668Z,13.10
2022-10-15T05:46:24.948Z,13.10
2022-10-15T05:48:53.923Z,13.10
2022-10-15T05:51:21.836Z,13.10
2022-10-15T05:53:52.896Z,13.10
2022-10-15T05:56:20.609Z,13.10
2022-10-15T05:58:48.692Z,13.10
2022-10-15T06:01:18.182Z,13.10
2022-10-15T06:03:46.157Z,13.10
2022-10-15T06:06:18.846Z,13.10
2022-10-15T06:08:47.045Z,13.10
2022-10-15T06:11:15.248Z,13.10
2022-10-15T06:13:44.186Z,13.10
2022-10-15T06:16:12.743Z,13.10
2022-10-15T06:18:41.792Z,13.10
2022-10-15T06:21:10.774Z,13.20
2022-10-15T06:23:38.492Z,13.20
2022-10-15T06:26:08.046Z,13.20
2022-10-15T06:28:37.105Z,13.20
2022-10-15T06:31:05.774Z,13.20
2022-10-15T06:33:34.099Z,13.20
2022-10-15T06:36:04.731Z,13.20
2022-10-15T06:38:32.636Z,13.20
2022-10-15T06:41:00.346Z,13.20
2022-10-15T06:43:30.999Z,13.20
2022-10-15T06:46:01.120Z,13.20
2022-10-15T06:48:28.966Z,13.20
2022-10-15T06:51:00.683Z,13.20
2022-10-15T06:53:31.440Z,13.20
2022-10-15T06:56:00.057Z,13.20
2022-10-15T06:58:28.133Z,13.20
2022-10-15T07:01:01.031Z,13.20
2022-10-15T07:03:28.968Z,13.20
2022-10-15T07:05:56.870Z,13.30
2022-10-15T07:08:26.137Z,13.30
2022-10-15T07:10:55.150Z,13.30
2022-10-15T07:13:22.856Z,13.30
2022-10-15T07:15:53.845Z,13.30
2022-10-15T07:18:21.544Z,13.30
2022-10-15T07:20:49.378Z,13.30
2022-10-15T07:23:17.058Z,13.30
2022-10-15T07:25:44.720Z,13.40
2022-10-15T07:28:13.757Z,13.40
2022-10-15T07:30:41.452Z,13.40
2022-10-15T07:33:09.164Z,13.40
2022-10-15T07:35:38.479Z,13.50
2022-10-15T07:38:06.209Z,13.50
2022-10-15T07:40:33.984Z,13.50
2022-10-15T07:43:01.765Z,13.50
2022-10-15T07:45:30.813Z,13.50
2022-10-15T07:47:58.465Z,13.60
2022-10-15T07:50:29.230Z,13.60
2022-10-15T07:53:00.026Z,13.60
2022-10-15T07:55:27.697Z,13.60
2022-10-15T07:57:58.033Z,13.70
2022-10-15T08:00:25.809Z,13.70
2022-10-15T08:02:54.846Z,13.80
2022-10-15T08:05:22.550Z,13.90
2022-10-15T08:07:50.258Z,13.90
2022-10-15T08:10:18.680Z,13.90
2022-10-15T08:12:46.362Z,13.90
2022-10-15T08:15:14.059Z,13.90
2022-10-15T08:17:42.329Z,14.00
2022-10-15T08:20:12.744Z,14.10
2022-10-15T08:22:40.453Z,14.10
2022-10-15T08:25:08.892Z,14.20
2022-10-15T08:27:36.603Z,14.20
2022-10-15T08:30:05.355Z,14.30
2022-10-15T08:32:33.080Z,14.40
2022-10-15T08:35:00.756Z,14.40
2022-10-15T08:37:29.745Z,14.40
2022-10-15T08:39:57.440Z,14.40
2022-10-15T08:42:31.557Z,14.50
2022-10-15T08:45:01.994Z,14.50
2022-10-15T08:47:34.425Z,14.60
2022-10-15T08:50:07.292Z,14.60
2022-10-15T08:52:43.125Z,14.70
2022-10-15T08:55:12.692Z,14.70
2022-10-15T08:57:46.789Z,14.80
2022-10-15T09:00:20.021Z,14.80
2022-10-15T09:02:55.708Z,14.80
2022-10-15T09:05:33.011Z,14.80
2022-10-15T09:08:08.158Z,14.80
2022-10-15T09:10:44.361Z,14.90
2022-10-15T09:13:16.586Z,14.90
2022-10-15T09:15:50.118Z,14.90
2022-10-15T09:18:22.854Z,14.90
2022-10-15T09:20:51.391Z,15.00
2022-10-15T09:23:22.701Z,15.00
2022-10-15T09:25:58.817Z,15.00
2022-10-15T09:28:36.955Z,15.00
2022-10-15T09:31:05.847Z,15.10
2022-10-15T09:33:38.763Z,15.10
2022-10-15T09:36:19.901Z,15.20
2022-10-15T09:38:59.704Z,15.20
2022-10-15T09:41:35.756Z,15.30
2022-10-15T09:44:07.240Z,15.30
2022-10-15T09:46:35.151Z,15.40
2022-10-15T09:49:09.508Z,15.40
2022-10-15T09:51:42.568Z,15.40
2022-10-15T09:54:20.021Z,15.40
2022-10-15T09:56:52.526Z,15.40
2022-10-15T09:59:21.376Z,15.40
2022-10-15T10:01:58.992Z,15.50
2022-10-15T10:04:28.865Z,15.50
2022-10-15T10:06:58.949Z,15.50
2022-10-15T10:09:32.473Z,15.50
2022-10-15T10:12:02.763Z,15.60
2022-10-15T10:14:33.161Z,15.60
2022-10-15T10:17:11.896Z,15.60
2022-10-15T10:19:39.954Z,15.70
2022-10-15T10:22:15.393Z,15.80
2022-10-15T10:24:44.686Z,15.90
2022-10-15T10:27:22.921Z,15.90
2022-10-15T10:29:55.386Z,16.00
2022-10-15T10:32:27.550Z,16.00
2022-10-15T10:34:56.142Z,16.00
2022-10-15T10:37:24.468Z,16.00
2022-10-15T10:39:58.918Z,16.10
2022-10-15T10:42:38.101Z,16.10
2022-10-15T10:45:19.145Z,16.10
2022-10-15T10:47:47.407Z,16.10
2022-10-15T10:50:30.500Z,16.10
2022-10-15T10:52:59.974Z,16.00
2022-10-15T10:55:38.298Z,16.00
2022-10-15T10:58:06.278Z,16.00
2022-10-15T11:00:39.823Z,16.00
2022-10-15T11:03:13.988Z,16.10
2022-10-15T11:05:42.580Z,16.10
2022-10-15T11:08:17.847Z,16.10
2022-10-15T11:10:53.940Z,16.10
2022-10-15T11:13:49.380Z,16.10
2022-10-15T11:16:23.702Z,16.20
2022-10-15T11:19:09.461Z,16.20
2022-10-15T11:22:00.680Z,16.20
2022-10-15T11:24:42.910Z,16.30
2022-10-15T11:27:34.106Z,16.30
2022-10-15T11:30:06.182Z,16.40
2022-10-15T11:33:05.758Z,16.40
2022-10-15T11:35:59.027Z,16.40
2022-10-15T11:38:33.146Z,16.40
2022-10-15T11:41:23.916Z,16.40
2022-10-15T11:44:17.153Z,16.50
2022-10-15T11:46:51.788Z,16.50
2022-10-15T11:49:30.423Z,16.50
2022-10-15T11:52:14.058Z,16.50
2022-10-15T11:54:45.633Z,16.50
2022-10-15T11:57:15.890Z,16.60
2022-10-15T11:59:50.919Z,16.60
2022-10-15T12:02:24.071Z,16.60
2022-10-15T12:04:55.857Z,16.70
2022-10-15T12:07:26.860Z,16.70
2022-10-15T12:09:58.426Z,16.70
2022-10-15T12:12:42.260Z,16.70
2022-10-15T12:15:23.549Z,16.70
2022-10-15T12:17:56.651Z,16.70
2022-10-15T12:20:25.260Z,16.70
2022-10-15T12:22:59.027Z,16.80
2022-10-15T12:25:46.081Z,16.80
2022-10-15T12:28:17.621Z,16.80
2022-10-15T12:30:56.170Z,16.80
2022-10-15T12:33:33.397Z,16.70
2022-10-15T12:36:02.886Z,16.70
2022-10-15T12:38:32.920Z,16.70
2022-10-15T12:41:07.941Z,16.70
2022-10-15T12:43:39.910Z,16.70
2022-10-15T12:46:10.859Z,16.70
2022-10-15T12:48:41.674Z,16.70
2022-10-15T12:51:40.381Z,16.70
2022-10-15T12:54:37.904Z,16.80
2022-10-15T12:57:56.329Z,16.80
2022-10-15T13:00:36.091Z,16.80
2022-10-15T13:03:22.653Z,16.80
2022-10-15T13:05:53.960Z,16.80
2022-10-15T13:08:25.046Z,16.80
2022-10-15T13:10:55.843Z,16.80
2022-10-15T13:13:26.848Z,16.80
2022-10-15T13:15:59.541Z,16.80
2022-10-15T13:18:31.155Z,16.80
2022-10-15T13:20:59.678Z,16.90
2022-10-15T13:23:30.438Z,16.90
2022-10-15T13:26:13.142Z,16.90
2022-10-15T13:28:42.643Z,16.90
2022-10-15T13:31:16.894Z,16.90
2022-10-15T13:33:50.209Z,16.90
2022-10-15T13:36:22.309Z,17.00
2022-10-15T13:38:58.645Z,17.00
2022-10-15T13:41:28.869Z,17.00
2022-10-15T13:43:58.944Z,17.00
2022-10-15T13:46:28.171Z,17.10
2022-10-15T13:49:01.863Z,17.10
2022-10-15T13:51:34.223Z,17.10
2022-10-15T13:54:03.555Z,17.10
2022-10-15T13:56:33.310Z,17.10
2022-10-15T13:59:02.281Z,17.10
2022-10-15T14:01:31.686Z,17.10
2022-10-15T14:04:02.622Z,17.10
2022-10-15T14:06:32.384Z,17.10
2022-10-15T14:09:01.931Z,17.10
2022-10-15T14:11:30.878Z,17.10
2022-10-15T14:14:00.266Z,17.10
2022-10-15T14:16:31.552Z,17.10
2022-10-15T14:19:10.641Z,17.10
2022-10-15T14:21:43.561Z,17.20
2022-10-15T14:24:17.571Z,17.20
2022-10-15T14:26:45.664Z,17.20
2022-10-15T14:29:20.194Z,17.20
2022-10-15T14:31:50.288Z,17.20
2022-10-15T14:34:39.408Z,17.30
2022-10-15T14:37:42.802Z,17.30
2022-10-15T14:40:15.744Z,17.30
2022-10-15T14:42:45.070Z,17.30
2022-10-15T14:45:20.179Z,17.30
2022-10-15T14:47:49.696Z,17.30
2022-10-15T14:50:19.696Z,17.30
2022-10-15T14:52:50.873Z,17.30
2022-10-15T14:55:33.477Z,17.30
2022-10-15T14:58:07.712Z,17.30
2022-10-15T15:00:40.501Z,17.40
2022-10-15T15:03:08.644Z,17.40
2022-10-15T15:05:47.610Z,17.40
2022-10-15T15:08:15.817Z,17.40
2022-10-15T15:10:44.720Z,17.40
2022-10-15T15:13:16.498Z,17.40
2022-10-15T15:15:44.230Z,17.40
2022-10-15T15:18:12.550Z,17.40
2022-10-15T15:20:43.184Z,17.40
2022-10-15T15:23:16.797Z,17.40
2022-10-15T15:25:44.568Z,17.40
2022-10-15T15:28:14.494Z,17.40
2022-10-15T15:30:44.474Z,17.40
2022-10-15T15:33:12.607Z,17.40
2022-10-15T15:35:50.490Z,17.40
2022-10-15T15:38:20.746Z,17.30
2022-10-15T15:40:49.176Z,17.30
2022-10-15T15:43:19.364Z,17.30
2022-10-15T15:45:47.936Z,17.20
2022-10-15T15:48:17.066Z,17.20
2022-10-15T15:50:44.803Z,17.20
2022-10-15T15:53:13.586Z,17.20
2022-10-15T15:55:42.864Z,17.20
2022-10-15T15:58:10.580Z,17.10
2022-10-15T16:00:38.290Z,17.10
2022-10-15T16:03:06.016Z,17.00
2022-10-15T16:05:33.697Z,17.00
2022-10-15T16:08:01.354Z,16.90
2022-10-15T16:10:29.026Z,16.90
2022-10-15T16:12:58.047Z,16.80
2022-10-15T16:15:25.789Z,16.80
2022-10-15T16:17:53.483Z,16.70
2022-10-15T16:20:21.796Z,16.70
2022-10-15T16:22:50.726Z,16.60
2022-10-15T16:25:18.684Z,16.60
2022-10-15T16:27:48.668Z,16.50
2022-10-15T16:30:18.221Z,16.50
2022-10-15T16:32:46.376Z,16.50
2022-10-15T16:35:14.110Z,16.40
2022-10-15T16:37:41.791Z,16.40
2022-10-15T16:40:10.420Z,16.30
2022-10-15T16:42:38.131Z,16.30
2022-10-15T16:45:06.734Z,16.20
2022-10-15T16:47:35.814Z,16.30
2022-10-15T16:50:04.460Z,16.20
2022-10-15T16:52:34.065Z,16.20
2022-10-15T16:55:01.804Z,16.20
2022-10-15T16:57:29.482Z,16.10
2022-10-15T16:59:57.169Z,16.10
2022-10-15T17:02:25.151Z,16.10
2022-10-15T17:04:54.413Z,16.10
2022-10-15T17:07:22.403Z,16.00
2022-10-15T17:12:23.352Z,16.00
2022-10-15T17:14:52.316Z,16.00
2022-10-15T17:17:20.442Z,15.90
2022-10-15T17:19:48.108Z,15.90
2022-10-15T17:22:17.130Z,15.90
2022-10-15T17:24:44.966Z,15.90
2022-10-15T17:27:12.669Z,15.90
2022-10-15T17:29:40.484Z,15.80
2022-10-15T17:32:08.936Z,15.80
2022-10-15T17:34:36.617Z,15.80
2022-10-15T17:37:04.316Z,15.80
2022-10-15T17:39:33.360Z,15.70
2022-10-15T17:42:01.054Z,15.70
2022-10-15T17:44:28.824Z,15.70
2022-10-15T17:46:56.506Z,15.70
2022-10-15T17:49:24.205Z,15.60
2022-10-15T17:51:51.896Z,15.60
2022-10-15T17:54:19.666Z,15.60
2022-10-15T17:56:48.709Z,15.60
2022-10-15T17:59:16.398Z,15.50
2022-10-15T18:02:00.799Z,15.50
2022-10-15T18:04:29.208Z,15.50
2022-10-15T18:06:57.068Z,15.50
2022-10-15T18:09:25.052Z,15.50
2022-10-15T18:11:54.158Z,15.40
2022-10-15T18:14:21.915Z,15.40
2022-10-15T18:16:49.719Z,15.40
2022-10-15T18:19:17.439Z,15.40
2022-10-15T18:21:48.639Z,15.30
2022-10-15T18:24:19.905Z,15.30
2022-10-15T18:26:47.757Z,15.20
2022-10-15T18:29:17.482Z,15.20
2022-10-15T18:31:45.153Z,15.20
2022-10-15T18:34:12.841Z,15.10
2022-10-15T18:36:42.322Z,15.00
2022-10-15T18:39:10.515Z,15.00
2022-10-15T18:41:39.833Z,15.00
2022-10-15T18:44:09.678Z,14.90
2022-10-15T18:46:41.868Z,14.90
2022-10-15T18:49:09.626Z,14.80
2022-10-15T18:51:37.671Z,14.80
2022-10-15T18:54:05.995Z,14.80
2022-10-15T18:56:33.694Z,14.70
2022-10-15T18:59:01.425Z,14.70
2022-10-15T19:01:31.184Z,14.60
2022-10-15T19:04:02.589Z,14.70
2022-10-15T19:06:32.673Z,14.60
2022-10-15T19:09:01.381Z,14.60
2022-10-15T19:11:29.536Z,14.60
2022-10-15T19:13:57.896Z,14.60
2022-10-15T19:16:25.600Z,14.60
2022-10-15T19:18:53.305Z,14.60
2022-10-15T19:21:22.620Z,14.60
2022-10-15T19:23:50.313Z,14.50
2022-10-15T19:26:18.274Z,14.50
2022-10-15T19:28:46.785Z,14.50
2022-10-15T19:31:22.158Z,14.50
2022-10-15T19:33:49.846Z,14.40
2022-10-15T19:36:22.563Z,14.40
2022-10-15T19:38:50.332Z,14.40
2022-10-15T19:41:18.214Z,14.40
2022-10-15T19:43:46.205Z,14.40
2022-10-15T19:46:14.458Z,14.30
2022-10-15T19:48:42.334Z,14.30
2022-10-15T19:51:10.061Z,14.30
2022-10-15T19:53:39.144Z,14.30
2022-10-15T19:56:09.146Z,14.20
2022-10-15T19:58:37.162Z,14.30
2022-10-15T20:01:05.399Z,14.20
2022-10-15T20:03:33.872Z,14.20
2022-10-15T20:06:02.707Z,14.20
2022-10-15T20:08:31.591Z,14.20
2022-10-15T20:11:00.633Z,14.20
2022-10-15T20:13:28.337Z,14.20
2022-10-15T20:15:56.245Z,14.10
2022-10-15T20:18:23.909Z,14.10
2022-10-15T20:20:51.590Z,14.10
2022-10-15T20:23:19.323Z,14.10
2022-10-15T20:25:47.531Z,14.10
2022-10-15T20:28:18.157Z,14.00
2022-10-15T20:30:47.125Z,14.00
2022-10-15T20:33:15.120Z,14.00
2022-10-15T20:35:43.156Z,14.00
2022-10-15T20:38:10.867Z,14.00
2022-10-15T20:40:41.188Z,13.90
2022-10-15T20:43:09.230Z,13.90
2022-10-15T20:45:43.314Z,13.90
2022-10-15T20:48:16.998Z,13.80
2022-10-15T20:50:44.836Z,13.80
2022-10-15T20:53:12.528Z,13.80
2022-10-15T20:55:40.466Z,13.70
2022-10-15T20:58:08.415Z,13.80
2022-10-15T21:00:36.464Z,13.80
2022-10-15T21:03:05.565Z,13.70
2022-10-15T21:05:33.276Z,13.70
2022-10-15T21:08:01.464Z,13.70
2022-10-15T21:10:29.214Z,13.60
2022-10-15T21:12:56.919Z,13.60
2022-10-15T21:15:24.829Z,13.60
2022-10-15T21:17:52.609Z,13.60
2022-10-15T21:20:22.867Z,13.60
2022-10-15T21:22:50.595Z,13.60
2022-10-15T21:25:18.430Z,13.60
2022-10-15T21:27:46.213Z,13.60
2022-10-15T21:30:14.208Z,13.60
2022-10-15T21:32:41.946Z,13.60
2022-10-15T21:35:10.023Z,13.60
2022-10-15T21:37:39.700Z,13.60
2022-10-15T21:40:08.731Z,13.60
2022-10-15T21:42:36.446Z,13.50
2022-10-15T21:45:04.477Z,13.50
2022-10-15T21:47:32.975Z,13.50
2022-10-15T21:50:00.676Z,13.50
2022-10-15T21:52:28.489Z,13.50
2022-10-15T21:54:57.665Z,13.50
2022-10-15T21:57:25.649Z,13.40
2022-10-15T21:59:53.481Z,13.40
2022-10-15T22:02:21.227Z,13.40
2022-10-15T22:04:48.962Z,13.40
2022-10-15T22:07:16.678Z,13.40
2022-10-15T22:09:44.454Z,13.30
2022-10-15T22:12:15.545Z,13.30
2022-10-15T22:14:46.205Z,13.30
2022-10-15T22:17:15.446Z,13.30
2022-10-15T22:19:43.174Z,13.30
2022-10-15T22:22:10.884Z,13.30
2022-10-15T22:24:38.665Z,13.30
2022-10-15T22:27:06.390Z,13.30
2022-10-15T22:29:35.617Z,13.30
2022-10-15T22:32:03.490Z,13.30
2022-10-15T22:34:31.437Z,13.30
2022-10-15T22:36:59.148Z,13.30
2022-10-15T22:39:26.919Z,13.30
2022-10-15T22:41:54.690Z,13.30
2022-10-15T22:44:22.755Z,13.30
2022-10-15T22:46:51.830Z,13.30
2022-10-15T22:49:20.738Z,13.20
2022-10-15T22:51:48.561Z,13.20
2022-10-15T22:54:17.160Z,13.30
2022-10-15T22:56:45.297Z,13.20
2022-10-15T22:59:13.388Z,13.20
2022-10-15T23:01:41.241Z,13.20
2022-10-15T23:04:13.290Z,13.20
2022-10-15T23:06:41.180Z,13.20
2022-10-15T23:09:09.372Z,13.20
2022-10-15T23:11:39.147Z,13.20
2022-10-15T23:14:10.582Z,13.20
2022-10-15T23:16:40.429Z,13.20
2022-10-15T23:19:13.143Z,13.20
2022-10-15T23:21:43.401Z,13.10
2022-10-15T23:24:11.782Z,13.10
2022-10-15T23:26:40.361Z,13.10
2022-10-15T23:29:09.625Z,13.10
2022-10-15T23:31:37.398Z,13.10
2022-10-15T23:34:06.812Z,13.10
2022-10-15T23:36:35.882Z,13.10
2022-10-15T23:39:06.373Z,13.10
2022-10-15T23:41:34.908Z,13.10
2022-10-15T23:44:02.616Z,13.10
2022-10-15T23:46:30.346Z,13.10
2022-10-15T23:48:58.064Z,13.10
2022-10-15T23:51:28.033Z,13.10
2022-10-15T23:53:59.185Z,13.10
2022-10-15T23:56:27.828Z,13.10
2022-10-15T23:58:57.326Z,13.00
